Terminal Aerodrome Forecast
Issued by NWS

Home | Current Version | Previous Version | Text Only | Print | Product List | Glossary On
Versions: 1 2 3 4 5 6 7 8 9 10 11 12
000
FTUS45 KRIW 031122
TAFRKS
TAF
KRKS 031122Z 0312/0412 17010KT P6SM VCSH SCT080 BKN110
     FM031700 13008KT 6SM -SHRA VCTS SCT035 OVC060CB
     FM032000 16007KT 5SM SHRA VCTS OVC030CB
     FM040100 26017G25KT P6SM VCSH SCT030 OVC050
     FM041000 25014KT P6SM FEW030 SCT050=

USA.gov is the U.S. government's official web portal to all federal, state and local government web resources and services.